createdAt,value
2023-02-07T00:01:05.300Z,104
2023-02-07T00:16:05.130Z,116
2023-02-07T00:31:04.768Z,119
2023-02-07T00:46:05.093Z,108
2023-02-07T01:01:05.442Z,108
2023-02-07T01:16:05.732Z,113
2023-02-07T01:31:05.295Z,111
2023-02-07T01:46:05.217Z,115
2023-02-07T02:01:05.455Z,134
2023-02-07T02:16:05.395Z,119
2023-02-07T02:31:04.886Z,148
2023-02-07T02:46:04.850Z,129
2023-02-07T03:01:05.273Z,110
2023-02-07T03:16:05.591Z,109
2023-02-07T03:31:05.015Z,104
2023-02-07T03:46:05.222Z,114
2023-02-07T04:01:05.334Z,122
2023-02-07T04:16:05.373Z,136
2023-02-07T04:31:04.760Z,145
2023-02-07T04:46:04.800Z,170
2023-02-07T05:01:04.816Z,151
2023-02-07T05:16:04.777Z,150
2023-02-07T05:31:05.147Z,145
2023-02-07T05:46:05.417Z,173
2023-02-07T06:01:05.237Z,171
2023-02-07T06:16:05.159Z,183
2023-02-07T06:31:05.454Z,160
2023-02-07T06:46:04.742Z,140
2023-02-07T07:01:05.618Z,157
2023-02-07T07:16:04.684Z,143
2023-02-07T07:31:04.790Z,160
2023-02-07T07:46:04.961Z,193
2023-02-07T08:01:04.719Z,164
2023-02-07T08:16:05.337Z,172
2023-02-07T08:31:04.816Z,196
2023-02-07T08:46:05.130Z,165
2023-02-07T09:01:05.594Z,163
2023-02-07T09:16:05.037Z,130
2023-02-07T09:31:05.513Z,141
2023-02-07T09:46:05.447Z,149
2023-02-07T10:01:05.014Z,139
2023-02-07T10:16:04.762Z,137
2023-02-07T10:31:05.468Z,125
2023-02-07T10:46:06.441Z,109
2023-02-07T11:01:04.719Z,105
2023-02-07T11:16:04.898Z,61
2023-02-07T11:31:05.185Z,53
2023-02-07T11:46:05.386Z,46
2023-02-07T12:01:05.401Z,36
2023-02-07T12:16:05.335Z,31
2023-02-07T12:31:06.404Z,34
2023-02-07T12:46:04.980Z,34
2023-02-07T13:01:05.256Z,32
2023-02-07T13:16:05.098Z,38
2023-02-07T13:31:05.523Z,31
2023-02-07T13:46:05.256Z,31
2023-02-07T14:01:05.273Z,27
2023-02-07T14:16:05.245Z,21
2023-02-07T14:31:05.503Z,25
2023-02-07T14:46:05.423Z,39
2023-02-07T15:01:05.393Z,30
2023-02-07T15:16:05.400Z,35
2023-02-07T15:31:05.341Z,36
2023-02-07T15:46:04.925Z,35
2023-02-07T16:01:04.837Z,33
2023-02-07T16:16:05.048Z,39
2023-02-07T16:31:05.088Z,40
2023-02-07T16:46:04.972Z,40
2023-02-07T17:01:04.972Z,55
2023-02-07T17:16:05.292Z,53
2023-02-07T17:31:05.113Z,52
2023-02-07T17:46:05.032Z,47
2023-02-07T18:01:05.445Z,58
2023-02-07T18:16:04.846Z,49
2023-02-07T18:31:05.159Z,49
2023-02-07T18:46:05.351Z,50
2023-02-07T19:01:05.377Z,39
2023-02-07T19:16:05.537Z,42
2023-02-07T19:31:05.643Z,45
2023-02-07T19:46:05.222Z,37
2023-02-07T20:01:05.155Z,45
2023-02-07T20:16:05.037Z,45
2023-02-07T20:31:05.481Z,48
2023-02-07T20:46:05.282Z,44
2023-02-07T21:01:05.048Z,43
2023-02-07T21:16:05.091Z,49
2023-02-07T21:31:05.366Z,51
2023-02-07T21:46:04.572Z,54
2023-02-07T22:01:04.843Z,48
2023-02-07T22:16:05.070Z,51
2023-02-07T22:31:05.248Z,57
2023-02-07T22:46:05.426Z,51
2023-02-07T23:01:05.298Z,53
2023-02-07T23:16:05.881Z,49
2023-02-07T23:31:05.523Z,49
2023-02-07T23:46:05.109Z,48
